createdAt,value
2017-09-07T00:02:14.942Z,99.90
2017-09-07T00:04:42.480Z,99.90
2017-09-07T00:07:10.000Z,99.90
2017-09-07T00:09:37.522Z,99.90
2017-09-07T00:12:05.032Z,99.90
2017-09-07T00:14:32.552Z,99.90
2017-09-07T00:17:00.067Z,99.90
2017-09-07T00:19:27.598Z,99.90
2017-09-07T00:21:55.107Z,99.90
2017-09-07T00:24:22.630Z,99.90
2017-09-07T00:27:33.197Z,99.90
2017-09-07T00:30:00.734Z,99.90
2017-09-07T00:32:28.225Z,99.90
2017-09-07T00:34:56.517Z,99.90
2017-09-07T00:37:24.776Z,99.90
2017-09-07T00:39:52.307Z,99.90
2017-09-07T00:42:19.809Z,99.90
2017-09-07T00:44:48.097Z,99.90
2017-09-07T00:47:15.620Z,99.90
2017-09-07T00:49:43.157Z,99.90
2017-09-07T00:52:10.656Z,99.90
2017-09-07T00:54:38.175Z,99.90
2017-09-07T00:57:05.677Z,99.90
2017-09-07T00:59:33.961Z,99.90
2017-09-07T01:02:02.233Z,99.90
2017-09-07T01:04:30.520Z,99.90
2017-09-07T01:06:58.784Z,99.90
2017-09-07T01:09:27.059Z,99.90
2017-09-07T01:11:54.644Z,99.90
2017-09-07T01:14:22.266Z,99.90
2017-09-07T01:16:49.765Z,99.90
2017-09-07T01:19:17.296Z,99.90
2017-09-07T01:21:44.802Z,99.90
2017-09-07T01:24:12.338Z,99.90
2017-09-07T01:26:39.902Z,99.90
2017-09-07T01:29:07.425Z,99.90
2017-09-07T01:31:34.921Z,99.90
2017-09-07T01:34:02.440Z,99.90
2017-09-07T01:36:29.932Z,99.90
2017-09-07T01:38:58.216Z,99.90
2017-09-07T01:41:25.729Z,99.90
2017-09-07T01:43:53.255Z,99.90
2017-09-07T01:46:20.752Z,99.90
2017-09-07T01:48:48.276Z,99.90
2017-09-07T01:51:16.003Z,99.90
2017-09-07T01:53:43.536Z,99.90
2017-09-07T01:56:11.024Z,99.90
2017-09-07T01:58:38.552Z,99.90
2017-09-07T02:01:06.045Z,99.90
2017-09-07T02:03:33.582Z,99.90
2017-09-07T02:06:03.087Z,99.90
2017-09-07T02:08:30.601Z,99.90
2017-09-07T02:10:58.104Z,99.90
2017-09-07T02:13:25.642Z,99.90
2017-09-07T02:15:53.150Z,99.90
2017-09-07T02:18:21.435Z,99.90
2017-09-07T02:20:49.884Z,99.90
2017-09-07T02:23:17.408Z,99.90
2017-09-07T02:25:44.909Z,99.90
2017-09-07T02:28:12.437Z,99.90
2017-09-07T02:30:39.945Z,99.90
2017-09-07T02:33:08.277Z,99.90
2017-09-07T02:35:35.779Z,99.90
2017-09-07T02:38:04.070Z,99.90
2017-09-07T02:40:32.341Z,99.90
2017-09-07T02:43:00.634Z,99.90
2017-09-07T02:45:28.139Z,99.90
2017-09-07T02:47:55.665Z,99.90
2017-09-07T02:50:23.168Z,99.90
2017-09-07T02:52:50.696Z,99.90
2017-09-07T02:55:18.197Z,99.90
2017-09-07T02:57:45.727Z,99.90
2017-09-07T03:00:13.245Z,99.90
2017-09-07T03:02:40.778Z,99.90
2017-09-07T03:05:08.291Z,99.90
2017-09-07T03:07:35.812Z,99.90
2017-09-07T03:10:04.093Z,99.90
2017-09-07T03:12:32.408Z,99.90
2017-09-07T03:14:59.908Z,99.90
2017-09-07T03:17:27.423Z,99.90
2017-09-07T03:19:54.919Z,99.90
2017-09-07T03:22:22.443Z,99.90
2017-09-07T03:24:49.953Z,99.90
2017-09-07T03:27:17.468Z,99.90
2017-09-07T03:29:44.968Z,99.90
2017-09-07T03:32:12.480Z,99.90
2017-09-07T03:34:39.991Z,99.90
2017-09-07T03:37:07.491Z,99.90
2017-09-07T03:39:35.013Z,99.90
2017-09-07T03:42:03.281Z,99.90
2017-09-07T03:44:30.801Z,99.90
2017-09-07T03:46:58.296Z,99.90
2017-09-07T03:49:25.811Z,99.90
2017-09-07T03:51:53.317Z,99.90
2017-09-07T03:54:20.829Z,99.90
2017-09-07T03:56:48.334Z,99.90
2017-09-07T03:59:15.856Z,99.90
2017-09-07T04:01:44.108Z,99.90
2017-09-07T04:04:11.624Z,99.90
2017-09-07T04:06:39.124Z,99.90
2017-09-07T04:09:06.640Z,99.90
2017-09-07T04:11:34.156Z,99.90
2017-09-07T04:14:01.665Z,99.90
2017-09-07T04:16:29.168Z,99.90
2017-09-07T04:18:56.701Z,99.90
2017-09-07T04:21:24.961Z,99.90
2017-09-07T04:23:52.599Z,99.90
2017-09-07T04:26:20.108Z,99.90
2017-09-07T04:28:48.397Z,99.90
2017-09-07T04:31:15.914Z,99.90
2017-09-07T04:33:43.472Z,99.90
2017-09-07T04:36:11.942Z,99.90
2017-09-07T04:38:39.495Z,99.90
2017-09-07T04:41:07.704Z,99.90
2017-09-07T04:43:35.261Z,99.90
2017-09-07T04:46:02.790Z,99.90
2017-09-07T04:48:31.110Z,99.90
2017-09-07T04:50:59.278Z,99.90
2017-09-07T04:53:26.863Z,99.90
2017-09-07T04:55:55.161Z,99.90
2017-09-07T04:58:22.731Z,99.90
2017-09-07T05:00:50.240Z,99.90
2017-09-07T05:03:18.240Z,99.90
2017-09-07T05:05:45.752Z,99.90
2017-09-07T05:08:13.271Z,99.90
2017-09-07T05:10:40.776Z,99.90
2017-09-07T05:13:08.468Z,99.90
2017-09-07T05:15:40.509Z,99.90
2017-09-07T05:18:08.016Z,99.90
2017-09-07T05:20:35.520Z,99.90
2017-09-07T05:23:03.041Z,99.90
2017-09-07T05:25:30.765Z,99.90
2017-09-07T05:27:58.284Z,99.90
2017-09-07T05:30:25.792Z,99.90
2017-09-07T05:32:54.080Z,99.90
2017-09-07T05:35:21.624Z,99.90
2017-09-07T05:37:49.911Z,99.90
2017-09-07T05:40:18.184Z,99.90
2017-09-07T05:42:46.467Z,99.90
2017-09-07T05:45:14.732Z,99.90
2017-09-07T05:47:42.259Z,99.90
2017-09-07T05:50:09.773Z,99.90
2017-09-07T05:52:37.298Z,99.90
2017-09-07T05:55:04.802Z,99.90
2017-09-07T05:57:32.319Z,99.90
2017-09-07T05:59:59.829Z,99.90
2017-09-07T06:02:27.358Z,99.90
2017-09-07T06:04:55.648Z,99.90
2017-09-07T06:07:23.184Z,99.90
2017-09-07T06:09:50.689Z,99.90
2017-09-07T06:12:18.225Z,99.90
2017-09-07T06:14:45.734Z,99.90
2017-09-07T06:17:13.353Z,99.90
2017-09-07T06:19:42.702Z,99.90
2017-09-07T06:22:10.307Z,99.90
2017-09-07T06:24:38.582Z,99.90
2017-09-07T06:27:06.890Z,99.90
2017-09-07T06:29:34.384Z,99.90
2017-09-07T06:32:02.354Z,99.90
2017-09-07T06:34:29.924Z,99.90
2017-09-07T06:36:57.452Z,99.90
2017-09-07T06:39:24.952Z,99.90
2017-09-07T06:41:52.472Z,99.90
2017-09-07T06:44:20.240Z,99.90
2017-09-07T06:46:47.804Z,99.90
2017-09-07T06:49:15.305Z,99.90
2017-09-07T06:51:43.595Z,99.90
2017-09-07T06:54:11.104Z,99.90
2017-09-07T06:56:38.628Z,99.90
2017-09-07T06:59:06.153Z,99.90
2017-09-07T07:01:34.440Z,99.90
2017-09-07T07:04:02.712Z,99.90
2017-09-07T07:06:31.005Z,99.90
2017-09-07T07:08:58.517Z,99.90
2017-09-07T07:11:26.038Z,99.90
2017-09-07T07:13:53.525Z,99.90
2017-09-07T07:16:21.047Z,99.90
2017-09-07T07:18:49.324Z,99.90
2017-09-07T07:21:16.867Z,99.90
2017-09-07T07:23:44.362Z,99.90
2017-09-07T07:26:11.875Z,99.90
2017-09-07T07:28:39.376Z,99.90
2017-09-07T07:31:06.893Z,99.90
2017-09-07T07:33:34.441Z,99.90
2017-09-07T07:36:01.947Z,99.90
2017-09-07T07:38:29.449Z,99.30
2017-09-07T07:40:56.988Z,99.10
2017-09-07T07:43:24.492Z,99.10
2017-09-07T07:45:52.008Z,98.50
2017-09-07T07:48:19.512Z,98.40
2017-09-07T07:50:47.004Z,98.50
2017-09-07T07:53:14.529Z,98.30
2017-09-07T07:55:42.030Z,98.20
2017-09-07T07:58:09.558Z,98.00
2017-09-07T08:00:37.073Z,96.80
2017-09-07T08:03:04.593Z,97.10
2017-09-07T08:05:32.861Z,97.00
2017-09-07T08:08:01.147Z,96.80
2017-09-07T08:10:29.423Z,96.60
2017-09-07T08:12:57.806Z,96.60
2017-09-07T08:15:25.321Z,96.50
2017-09-07T08:17:52.846Z,96.70
2017-09-07T08:20:20.358Z,96.70
2017-09-07T08:22:47.878Z,96.80
2017-09-07T08:25:15.387Z,96.50
2017-09-07T08:27:42.932Z,96.40
2017-09-07T08:30:10.466Z,96.80
2017-09-07T08:32:37.994Z,96.70
2017-09-07T08:35:05.508Z,96.60
2017-09-07T08:37:33.031Z,96.30
2017-09-07T08:40:00.540Z,96.20
2017-09-07T08:42:28.069Z,95.60
2017-09-07T08:44:55.577Z,95.60
2017-09-07T08:47:23.869Z,95.60
2017-09-07T08:49:51.379Z,95.50
2017-09-07T08:52:18.905Z,95.50
2017-09-07T08:54:46.410Z,95.20
2017-09-07T08:57:13.933Z,95.00
2017-09-07T08:59:41.445Z,95.40
2017-09-07T09:02:08.982Z,94.50
2017-09-07T09:04:36.491Z,94.50
2017-09-07T09:07:04.017Z,93.80
2017-09-07T09:09:31.537Z,94.00
2017-09-07T09:11:59.073Z,93.60
2017-09-07T09:14:26.586Z,93.90
2017-09-07T09:16:54.120Z,95.10
2017-09-07T09:19:21.624Z,95.00
2017-09-07T09:21:49.167Z,94.80
2017-09-07T09:24:16.683Z,95.10
2017-09-07T09:26:44.212Z,95.50
2017-09-07T09:29:11.707Z,95.10
2017-09-07T09:31:39.229Z,95.40
2017-09-07T09:34:06.739Z,94.80
2017-09-07T09:36:34.256Z,95.20
2017-09-07T09:39:02.525Z,93.50
2017-09-07T09:41:30.812Z,93.60
2017-09-07T09:43:58.304Z,93.50
2017-09-07T09:46:25.821Z,92.50
2017-09-07T09:48:53.312Z,91.70
2017-09-07T09:51:20.833Z,92.80
2017-09-07T09:53:48.337Z,92.40
2017-09-07T09:56:15.858Z,91.30
2017-09-07T09:58:43.396Z,90.90
2017-09-07T10:01:10.925Z,91.30
2017-09-07T10:03:38.430Z,90.80
2017-09-07T10:06:06.993Z,91.90
2017-09-07T10:08:34.471Z,91.80
2017-09-07T10:11:01.997Z,91.90
2017-09-07T10:13:29.499Z,92.40
2017-09-07T10:15:57.788Z,92.70
2017-09-07T10:18:25.297Z,92.60
2017-09-07T10:20:52.822Z,93.40
2017-09-07T10:23:20.325Z,93.70
2017-09-07T10:25:47.844Z,94.30
2017-09-07T10:28:15.344Z,93.90
2017-09-07T10:30:42.869Z,94.50
2017-09-07T10:33:10.375Z,95.00
2017-09-07T10:35:37.897Z,95.20
2017-09-07T10:38:06.281Z,96.90
2017-09-07T10:40:33.801Z,96.30
2017-09-07T10:43:01.315Z,95.10
2017-09-07T10:45:29.838Z,95.50
2017-09-07T10:47:58.111Z,97.00
2017-09-07T10:50:26.404Z,96.20
2017-09-07T10:52:53.909Z,96.10
2017-09-07T10:55:21.574Z,96.20
2017-09-07T10:57:49.084Z,94.80
2017-09-07T11:00:16.600Z,95.40
2017-09-07T11:02:44.108Z,95.40
2017-09-07T11:05:11.665Z,95.10
2017-09-07T11:07:39.176Z,95.40
2017-09-07T11:10:06.692Z,92.60
2017-09-07T11:12:34.205Z,93.60
2017-09-07T11:15:01.731Z,93.80
2017-09-07T11:17:29.239Z,93.50
2017-09-07T11:19:57.529Z,94.80
2017-09-07T11:22:25.789Z,93.80
2017-09-07T11:24:53.300Z,93.70
2017-09-07T11:27:20.796Z,94.20
2017-09-07T11:29:48.305Z,94.50
2017-09-07T11:32:15.808Z,93.00
2017-09-07T11:34:43.333Z,93.80
2017-09-07T11:37:10.833Z,92.60
2017-09-07T11:39:38.360Z,93.30
2017-09-07T11:42:05.862Z,92.50
2017-09-07T11:44:33.447Z,90.60
2017-09-07T11:47:00.970Z,91.50
2017-09-07T11:49:28.475Z,90.40
2017-09-07T11:51:56.003Z,90.30
2017-09-07T11:54:23.510Z,89.00
2017-09-07T11:56:51.033Z,90.00
2017-09-07T11:59:19.304Z,90.40
2017-09-07T12:01:46.820Z,90.40
2017-09-07T12:04:14.329Z,90.20
2017-09-07T12:06:41.846Z,87.90
2017-09-07T12:09:09.344Z,88.10
2017-09-07T12:11:37.635Z,90.10
2017-09-07T12:14:05.901Z,89.40
2017-09-07T12:16:34.188Z,89.90
2017-09-07T12:19:01.696Z,89.80
2017-09-07T12:21:29.222Z,89.00
2017-09-07T12:23:56.783Z,86.70
2017-09-07T12:26:24.306Z,88.80
2017-09-07T12:28:52.576Z,88.40
2017-09-07T12:31:20.129Z,88.30
2017-09-07T12:33:47.636Z,88.00
2017-09-07T12:36:15.157Z,88.30
2017-09-07T12:38:42.669Z,89.20
2017-09-07T12:41:10.189Z,88.30
2017-09-07T12:43:38.466Z,87.70
2017-09-07T12:46:06.753Z,85.50
2017-09-07T12:48:35.011Z,84.70
2017-09-07T12:51:02.534Z,84.60
2017-09-07T12:53:30.035Z,85.00
2017-09-07T12:55:58.334Z,84.30
2017-09-07T12:58:25.839Z,83.50
2017-09-07T13:00:53.385Z,83.40
2017-09-07T13:03:20.883Z,82.00
2017-09-07T13:05:48.396Z,82.60
2017-09-07T13:08:15.892Z,85.40
2017-09-07T13:10:43.416Z,86.40
2017-09-07T13:13:10.916Z,86.90
2017-09-07T13:15:38.428Z,85.80
2017-09-07T13:18:05.933Z,85.30
2017-09-07T13:20:33.473Z,84.40
2017-09-07T13:23:00.981Z,84.30
2017-09-07T13:25:29.269Z,83.70
2017-09-07T13:27:56.802Z,83.50
2017-09-07T13:30:24.362Z,83.10
2017-09-07T13:32:51.847Z,83.00
2017-09-07T13:35:19.366Z,82.60
2017-09-07T13:37:46.876Z,82.10
2017-09-07T13:40:14.396Z,77.80
2017-09-07T13:42:41.893Z,80.10
2017-09-07T13:45:09.413Z,76.00
2017-09-07T13:47:36.917Z,76.60
2017-09-07T13:50:04.442Z,76.50
2017-09-07T13:52:32.709Z,78.80
2017-09-07T13:55:01.200Z,78.70
2017-09-07T13:57:28.738Z,78.30
2017-09-07T13:59:56.263Z,77.40
2017-09-07T14:02:23.842Z,80.40
2017-09-07T14:04:51.357Z,80.70
2017-09-07T14:07:18.868Z,80.90
2017-09-07T14:09:46.392Z,78.10
2017-09-07T14:12:13.898Z,79.40
2017-09-07T14:14:41.417Z,77.80
2017-09-07T14:17:08.924Z,76.20
2017-09-07T14:19:36.451Z,78.00
2017-09-07T14:22:04.259Z,78.00
2017-09-07T14:24:31.780Z,78.20
2017-09-07T14:26:59.272Z,77.10
2017-09-07T14:29:26.800Z,75.80
2017-09-07T14:31:54.305Z,78.60
2017-09-07T14:34:22.579Z,77.90
2017-09-07T14:36:50.841Z,75.00
2017-09-07T14:39:18.365Z,74.90
2017-09-07T14:41:45.866Z,75.50
2017-09-07T14:44:13.396Z,75.50
2017-09-07T14:46:40.910Z,77.50
2017-09-07T14:49:08.432Z,77.10
2017-09-07T14:51:35.940Z,77.10
2017-09-07T14:54:03.472Z,77.70
2017-09-07T14:56:31.759Z,79.70
2017-09-07T14:58:59.284Z,79.60
2017-09-07T15:01:26.778Z,80.50
2017-09-07T15:03:56.159Z,81.30
2017-09-07T15:06:23.657Z,81.20
2017-09-07T15:08:51.185Z,80.70
2017-09-07T15:11:18.681Z,81.50
2017-09-07T15:13:46.204Z,80.70
2017-09-07T15:16:13.710Z,80.70
2017-09-07T15:18:41.229Z,80.30
2017-09-07T15:21:08.748Z,80.90
2017-09-07T15:23:36.369Z,80.10
2017-09-07T15:26:03.897Z,80.40
2017-09-07T15:28:31.424Z,81.20
2017-09-07T15:30:58.932Z,82.30
2017-09-07T15:33:26.446Z,82.10
2017-09-07T15:35:54.961Z,83.10
2017-09-07T15:38:22.500Z,82.20
2017-09-07T15:40:50.453Z,81.20
2017-09-07T15:43:17.988Z,82.30
2017-09-07T15:45:45.542Z,83.30
2017-09-07T15:48:13.077Z,83.80
2017-09-07T15:50:40.621Z,83.90
2017-09-07T15:53:08.147Z,83.70
2017-09-07T15:55:35.686Z,85.00
2017-09-07T15:58:03.184Z,85.30
2017-09-07T16:00:30.705Z,85.00
2017-09-07T16:02:58.214Z,85.60
2017-09-07T16:05:25.747Z,84.80
2017-09-07T16:07:53.250Z,84.00
2017-09-07T16:10:20.769Z,85.00
2017-09-07T16:12:48.289Z,85.40
2017-09-07T16:15:16.585Z,86.10
2017-09-07T16:17:44.079Z,86.00
2017-09-07T16:20:11.596Z,85.30
2017-09-07T16:22:39.101Z,86.10
2017-09-07T16:25:06.621Z,86.40
2017-09-07T16:27:34.129Z,86.50
2017-09-07T16:30:01.649Z,87.00
2017-09-07T16:32:29.157Z,87.40
2017-09-07T16:34:56.684Z,89.10
2017-09-07T16:37:24.171Z,87.70
2017-09-07T16:39:51.709Z,90.10
2017-09-07T16:42:19.213Z,88.70
2017-09-07T16:44:46.740Z,88.20
2017-09-07T16:47:14.232Z,89.80
2017-09-07T16:49:41.748Z,89.10
2017-09-07T16:52:09.252Z,89.80
2017-09-07T16:54:36.796Z,90.40
2017-09-07T16:57:04.296Z,90.90
2017-09-07T16:59:31.813Z,90.60
2017-09-07T17:01:59.331Z,91.40
2017-09-07T17:04:26.856Z,91.20
2017-09-07T17:06:55.236Z,91.50
2017-09-07T17:09:23.517Z,91.40
2017-09-07T17:11:51.789Z,92.00
2017-09-07T17:14:19.407Z,92.00
2017-09-07T17:16:46.916Z,92.30
2017-09-07T17:19:15.199Z,92.20
2017-09-07T17:21:43.468Z,92.10
2017-09-07T17:24:11.769Z,92.70
2017-09-07T17:26:39.271Z,92.60
2017-09-07T17:29:06.802Z,93.40
2017-09-07T17:31:34.377Z,93.10
2017-09-07T17:34:01.892Z,93.10
2017-09-07T17:36:29.395Z,93.50
2017-09-07T17:38:56.909Z,93.20
2017-09-07T17:41:25.187Z,94.10
2017-09-07T17:43:52.709Z,94.00
2017-09-07T17:46:20.437Z,94.40
2017-09-07T17:48:47.968Z,94.40
2017-09-07T17:51:15.478Z,93.90
2017-09-07T17:53:43.012Z,94.40
2017-09-07T17:56:12.459Z,94.40
2017-09-07T17:58:39.999Z,94.80
2017-09-07T18:01:07.509Z,94.90
2017-09-07T18:03:35.803Z,94.80
2017-09-07T18:06:03.323Z,94.80
2017-09-07T18:08:30.827Z,95.10
2017-09-07T18:10:58.350Z,95.30
2017-09-07T18:13:25.845Z,95.20
2017-09-07T18:15:53.385Z,94.80
2017-09-07T18:18:20.890Z,95.00
2017-09-07T18:20:48.415Z,95.30
2017-09-07T18:23:15.941Z,95.30
2017-09-07T18:25:43.483Z,95.50
2017-09-07T18:28:15.755Z,95.40
2017-09-07T18:30:43.271Z,95.90
2017-09-07T18:33:10.769Z,96.10
2017-09-07T18:35:38.327Z,96.40
2017-09-07T18:38:05.841Z,96.30
2017-09-07T18:40:34.163Z,96.10
2017-09-07T18:43:01.665Z,96.10
2017-09-07T18:45:29.213Z,96.20
2017-09-07T18:50:29.080Z,96.00
2017-09-07T18:52:59.773Z,96.10
2017-09-07T18:55:27.285Z,96.80
2017-09-07T18:57:54.819Z,97.10
2017-09-07T19:00:23.093Z,97.00
2017-09-07T19:02:52.137Z,95.80
2017-09-07T19:05:20.556Z,95.70
2017-09-07T19:07:56.345Z,96.50
2017-09-07T19:10:23.841Z,96.60
2017-09-07T19:12:51.425Z,96.20
2017-09-07T19:15:18.941Z,96.40
2017-09-07T19:17:46.680Z,96.20
2017-09-07T19:20:14.180Z,96.40
2017-09-07T19:22:41.941Z,96.20
2017-09-07T19:25:09.448Z,96.70
2017-09-07T19:27:36.967Z,96.50
2017-09-07T19:30:11.420Z,96.60
2017-09-07T19:32:38.943Z,96.60
2017-09-07T19:35:06.439Z,96.90
2017-09-07T19:37:35.334Z,96.60
2017-09-07T19:40:02.845Z,96.70
2017-09-07T19:42:30.378Z,96.90
2017-09-07T19:44:57.892Z,97.10
2017-09-07T19:47:25.453Z,97.10
2017-09-07T19:49:54.460Z,97.20
2017-09-07T19:52:21.984Z,97.10
2017-09-07T19:54:50.433Z,97.30
2017-09-07T19:57:19.480Z,97.30
2017-09-07T19:59:46.985Z,97.40
2017-09-07T20:02:15.265Z,97.70
2017-09-07T20:04:44.069Z,97.70
2017-09-07T20:07:14.155Z,98.20
2017-09-07T20:09:42.429Z,98.00
2017-09-07T20:12:11.875Z,98.20
2017-09-07T20:14:40.836Z,98.00
2017-09-07T20:17:08.369Z,98.20
2017-09-07T20:19:35.872Z,98.30
2017-09-07T20:22:03.392Z,98.10
2017-09-07T20:24:32.773Z,98.50
2017-09-07T20:27:00.330Z,98.50
2017-09-07T20:29:27.838Z,98.40
2017-09-07T20:31:59.087Z,98.00
2017-09-07T20:34:27.356Z,98.00
2017-09-07T20:36:58.366Z,98.20
2017-09-07T20:39:26.606Z,98.10
2017-09-07T20:41:54.178Z,98.10
2017-09-07T20:44:21.690Z,98.10
2017-09-07T20:46:49.221Z,98.00
2017-09-07T20:49:17.392Z,98.00
2017-09-07T20:51:44.933Z,97.60
2017-09-07T20:54:12.437Z,97.80
2017-09-07T20:56:39.981Z,97.70
2017-09-07T20:59:07.485Z,97.80
2017-09-07T21:01:40.545Z,97.80
2017-09-07T21:04:09.592Z,97.70
2017-09-07T21:06:38.061Z,97.80
2017-09-07T21:09:05.564Z,97.90
2017-09-07T21:11:33.079Z,97.90
2017-09-07T21:14:00.594Z,98.00
2017-09-07T21:16:28.111Z,98.00
2017-09-07T21:18:55.630Z,98.10
2017-09-07T21:21:23.957Z,98.00
2017-09-07T21:23:52.222Z,97.90
2017-09-07T21:26:19.742Z,97.80
2017-09-07T21:28:47.261Z,97.80
2017-09-07T21:31:14.786Z,97.40
2017-09-07T21:33:42.294Z,97.70
2017-09-07T21:36:09.819Z,97.90
2017-09-07T21:38:38.217Z,97.80
2017-09-07T21:41:05.744Z,97.60
2017-09-07T21:43:33.245Z,97.40
2017-09-07T21:46:01.693Z,97.50
2017-09-07T21:48:29.212Z,97.40
2017-09-07T21:50:56.714Z,97.20
2017-09-07T21:53:24.245Z,97.40
2017-09-07T21:55:53.529Z,97.10
2017-09-07T21:58:21.056Z,97.10
2017-09-07T22:00:48.555Z,97.60
2017-09-07T22:03:16.084Z,97.30
2017-09-07T22:05:43.589Z,97.60
2017-09-07T22:08:11.884Z,97.60
2017-09-07T22:10:40.155Z,97.80
2017-09-07T22:13:07.688Z,97.40
2017-09-07T22:15:35.202Z,97.50
2017-09-07T22:18:02.745Z,97.60
2017-09-07T22:20:30.245Z,97.80
2017-09-07T22:22:57.785Z,98.00
2017-09-07T22:25:25.309Z,97.90
2017-09-07T22:27:52.837Z,98.00
2017-09-07T22:30:20.338Z,97.90
2017-09-07T22:32:47.866Z,98.00
2017-09-07T22:35:15.375Z,98.30
2017-09-07T22:37:42.935Z,98.10
2017-09-07T22:40:10.445Z,98.50
2017-09-07T22:42:37.959Z,98.50
2017-09-07T22:45:05.460Z,98.80
2017-09-07T22:47:32.977Z,98.80
2017-09-07T22:50:00.477Z,98.80
2017-09-07T22:52:28.000Z,98.90
2017-09-07T22:54:55.504Z,99.00
2017-09-07T22:57:23.028Z,99.00
2017-09-07T22:59:50.521Z,99.20
2017-09-07T23:02:18.064Z,98.90
2017-09-07T23:04:45.560Z,99.40
2017-09-07T23:07:13.078Z,99.00
2017-09-07T23:09:40.576Z,99.30
2017-09-07T23:12:08.869Z,99.70
2017-09-07T23:14:36.383Z,99.60
2017-09-07T23:17:03.905Z,99.90
2017-09-07T23:19:31.630Z,99.90
2017-09-07T23:21:59.918Z,99.90
2017-09-07T23:24:28.180Z,99.90
2017-09-07T23:26:56.477Z,99.90
2017-09-07T23:29:24.745Z,99.90
2017-09-07T23:31:53.043Z,99.90
2017-09-07T23:34:20.536Z,99.90
2017-09-07T23:36:48.052Z,99.90
2017-09-07T23:39:15.578Z,99.90
2017-09-07T23:41:43.107Z,99.90
2017-09-07T23:44:10.616Z,99.90
2017-09-07T23:46:38.889Z,99.90
2017-09-07T23:49:07.164Z,99.90
2017-09-07T23:51:35.464Z,99.90
2017-09-07T23:54:02.965Z,99.90
2017-09-07T23:56:30.487Z,99.90
2017-09-07T23:58:57.992Z,99.90
